createdAt,value
2018-05-29T00:00:32.263Z,8.70
2018-05-29T00:03:00.251Z,9.53
2018-05-29T00:05:27.624Z,9.17
2018-05-29T00:07:55.008Z,7.97
2018-05-29T00:10:23.451Z,8.67
2018-05-29T00:12:50.844Z,8.70
2018-05-29T00:15:18.225Z,8.60
2018-05-29T00:17:45.617Z,8.17
2018-05-29T00:20:13.003Z,9.00
2018-05-29T00:22:40.392Z,8.73
2018-05-29T00:25:07.776Z,8.13
2018-05-29T00:27:35.169Z,8.53
2018-05-29T00:30:02.552Z,9.03
2018-05-29T00:32:30.011Z,8.57
2018-05-29T00:34:57.563Z,8.40
2018-05-29T00:37:24.945Z,8.33
2018-05-29T00:39:52.318Z,8.40
2018-05-29T00:42:19.716Z,8.47
2018-05-29T00:44:47.113Z,11.93
2018-05-29T00:47:14.505Z,8.07
2018-05-29T00:49:41.882Z,8.57
2018-05-29T00:52:09.266Z,8.07
2018-05-29T00:54:36.656Z,8.30
2018-05-29T00:57:04.048Z,9.13
2018-05-29T00:59:31.434Z,9.03
2018-05-29T01:01:58.828Z,8.47
2018-05-29T01:04:26.223Z,8.57
2018-05-29T01:06:53.618Z,7.30
2018-05-29T01:09:20.274Z,8.73
2018-05-29T01:11:47.713Z,8.87
2018-05-29T01:14:15.141Z,8.97
2018-05-29T01:16:42.531Z,8.27
2018-05-29T01:19:09.991Z,9.07
2018-05-29T01:21:37.397Z,9.77
2018-05-29T01:24:04.801Z,8.10
2018-05-29T01:26:32.206Z,8.60
2018-05-29T01:28:59.576Z,7.37
2018-05-29T01:31:26.968Z,8.80
2018-05-29T01:33:54.362Z,8.50
2018-05-29T01:36:22.577Z,8.13
2018-05-29T01:38:49.952Z,8.67
2018-05-29T01:41:17.341Z,8.10
2018-05-29T01:43:44.716Z,8.23
2018-05-29T01:46:12.127Z,8.57
2018-05-29T01:48:39.516Z,8.33
2018-05-29T01:51:06.900Z,8.67
2018-05-29T01:53:34.296Z,8.53
2018-05-29T01:56:01.696Z,8.63
2018-05-29T01:58:29.088Z,9.17
2018-05-29T02:00:56.477Z,9.00
2018-05-29T02:03:23.870Z,8.43
2018-05-29T02:05:51.256Z,9.30
2018-05-29T02:08:18.659Z,9.13
2018-05-29T02:10:46.057Z,9.00
2018-05-29T02:13:13.448Z,13.93
2018-05-29T02:15:40.831Z,10.07
2018-05-29T02:18:08.241Z,8.83
2018-05-29T02:20:35.669Z,9.40
2018-05-29T02:23:03.056Z,9.57
2018-05-29T02:25:30.452Z,9.57
2018-05-29T02:27:57.846Z,9.43
2018-05-29T02:30:25.227Z,10.47
2018-05-29T02:32:52.702Z,11.10
2018-05-29T02:35:20.105Z,11.97
2018-05-29T02:37:47.521Z,10.97
2018-05-29T02:40:14.905Z,10.97
2018-05-29T02:42:42.306Z,12.40
2018-05-29T02:45:09.726Z,11.10
2018-05-29T02:47:37.117Z,11.23
2018-05-29T02:50:04.520Z,9.37
2018-05-29T02:52:31.911Z,9.40
2018-05-29T02:54:59.359Z,9.33
2018-05-29T02:57:26.779Z,10.20
2018-05-29T02:59:54.169Z,9.77
2018-05-29T03:02:21.580Z,10.00
2018-05-29T03:04:48.981Z,10.17
2018-05-29T03:07:16.383Z,11.67
2018-05-29T03:09:43.759Z,9.60
2018-05-29T03:12:11.162Z,11.00
2018-05-29T03:14:38.540Z,10.90
2018-05-29T03:17:05.938Z,9.63
2018-05-29T03:19:33.363Z,11.37
2018-05-29T03:22:00.779Z,11.23
2018-05-29T03:24:28.168Z,10.80
2018-05-29T03:26:55.547Z,10.87
2018-05-29T03:29:22.935Z,10.83
2018-05-29T03:31:50.330Z,9.30
2018-05-29T03:34:18.249Z,10.17
2018-05-29T03:36:45.644Z,10.47
2018-05-29T03:39:13.041Z,9.37
2018-05-29T03:41:40.439Z,11.30
2018-05-29T03:44:07.839Z,10.23
2018-05-29T03:46:35.245Z,9.17
2018-05-29T03:49:02.635Z,10.40
2018-05-29T03:51:30.021Z,11.07
2018-05-29T03:53:57.412Z,11.00
2018-05-29T03:56:24.822Z,10.50
2018-05-29T03:58:52.222Z,11.43
2018-05-29T04:01:19.613Z,11.67
2018-05-29T04:03:47.012Z,10.83
2018-05-29T04:06:14.423Z,11.10
2018-05-29T04:08:41.804Z,12.10
2018-05-29T04:11:09.184Z,10.77
2018-05-29T04:13:36.586Z,11.43
2018-05-29T04:16:03.982Z,11.20
2018-05-29T04:18:31.371Z,11.33
2018-05-29T04:20:58.774Z,11.10
2018-05-29T04:23:26.163Z,12.60
2018-05-29T04:25:53.765Z,19.13
2018-05-29T04:28:21.173Z,11.30
2018-05-29T04:30:48.553Z,11.47
2018-05-29T04:33:15.988Z,10.37
2018-05-29T04:35:43.436Z,9.60
2018-05-29T04:38:10.816Z,10.93
2018-05-29T04:40:38.212Z,10.80
2018-05-29T04:43:05.615Z,12.67
2018-05-29T04:45:33.008Z,11.33
2018-05-29T04:48:00.403Z,10.20
2018-05-29T04:50:27.793Z,11.30
2018-05-29T04:52:55.189Z,10.97
2018-05-29T04:55:22.576Z,10.43
2018-05-29T04:57:49.968Z,11.23
2018-05-29T05:00:17.371Z,10.80
2018-05-29T05:02:44.773Z,9.23
2018-05-29T05:05:12.155Z,10.47
2018-05-29T05:07:39.559Z,10.00
2018-05-29T05:10:06.942Z,10.10
2018-05-29T05:12:34.326Z,12.43
2018-05-29T05:15:01.713Z,10.73
2018-05-29T05:17:29.120Z,10.13
2018-05-29T05:19:56.500Z,10.17
2018-05-29T05:22:23.896Z,11.10
2018-05-29T05:24:51.271Z,9.53
2018-05-29T05:27:18.663Z,10.40
2018-05-29T05:29:46.064Z,10.23
2018-05-29T05:32:59.529Z,9.03
2018-05-29T05:35:27.855Z,9.97
2018-05-29T05:37:55.240Z,9.00
2018-05-29T05:40:22.647Z,9.83
2018-05-29T05:42:50.042Z,10.20
2018-05-29T05:45:17.434Z,10.23
2018-05-29T05:47:44.812Z,9.00
2018-05-29T05:50:12.212Z,10.27
2018-05-29T05:52:39.620Z,9.87
2018-05-29T05:55:06.972Z,9.60
2018-05-29T05:57:34.372Z,10.63
2018-05-29T06:00:18.623Z,10.57
2018-05-29T06:02:46.101Z,9.90
2018-05-29T06:08:08.656Z,9.90
2018-05-29T06:10:36.062Z,9.73
2018-05-29T06:13:03.503Z,10.90
2018-05-29T06:15:30.905Z,11.10
2018-05-29T06:17:58.308Z,10.20
2018-05-29T06:20:25.715Z,9.90
2018-05-29T06:22:53.123Z,10.10
2018-05-29T06:25:20.559Z,9.97
2018-05-29T06:27:47.991Z,10.00
2018-05-29T06:30:15.375Z,10.80
2018-05-29T06:32:42.828Z,10.10
2018-05-29T06:35:10.220Z,10.70
2018-05-29T06:37:37.657Z,10.37
2018-05-29T06:40:05.068Z,10.80
2018-05-29T06:42:32.496Z,10.30
2018-05-29T06:44:59.975Z,12.47
2018-05-29T06:47:27.352Z,11.27
2018-05-29T06:49:54.748Z,10.07
2018-05-29T06:52:22.161Z,11.20
2018-05-29T06:54:49.545Z,10.70
2018-05-29T06:57:16.971Z,11.27
2018-05-29T06:59:44.365Z,12.30
2018-05-29T07:02:11.759Z,9.87
2018-05-29T07:04:39.160Z,10.60
2018-05-29T07:07:06.609Z,12.17
2018-05-29T07:09:34.001Z,12.20
2018-05-29T07:12:01.381Z,12.03
2018-05-29T07:14:28.881Z,11.10
2018-05-29T07:16:56.288Z,10.20
2018-05-29T07:19:23.708Z,11.47
2018-05-29T07:21:51.173Z,12.00
2018-05-29T07:24:18.602Z,15.40
2018-05-29T07:26:46.025Z,11.43
2018-05-29T07:29:13.484Z,11.90
2018-05-29T07:31:40.900Z,11.87
2018-05-29T07:34:08.334Z,11.07
2018-05-29T07:36:35.783Z,10.80
2018-05-29T07:39:03.225Z,11.60
2018-05-29T07:41:30.640Z,11.90
2018-05-29T07:43:58.073Z,11.67
2018-05-29T07:46:25.549Z,12.00
2018-05-29T07:48:52.991Z,12.87
2018-05-29T07:51:20.429Z,10.77
2018-05-29T07:53:47.870Z,12.57
2018-05-29T07:56:15.305Z,11.37
2018-05-29T07:58:42.726Z,10.97
2018-05-29T08:01:10.165Z,11.67
2018-05-29T08:03:37.621Z,12.50
2018-05-29T08:06:05.059Z,12.07
2018-05-29T08:08:32.478Z,13.07
2018-05-29T08:11:00.298Z,11.70
2018-05-29T08:13:27.753Z,11.47
2018-05-29T08:15:55.214Z,12.10
2018-05-29T08:18:22.971Z,11.87
2018-05-29T08:20:51.086Z,12.30
2018-05-29T08:23:18.530Z,9.93
2018-05-29T08:25:45.978Z,11.43
2018-05-29T08:28:13.412Z,11.77
2018-05-29T08:30:40.935Z,11.37
2018-05-29T08:33:08.423Z,11.20
2018-05-29T08:35:36.627Z,10.50
2018-05-29T08:38:04.065Z,13.10
2018-05-29T08:40:31.518Z,11.10
2018-05-29T08:42:58.956Z,11.33
2018-05-29T08:45:26.388Z,11.90
2018-05-29T08:47:54.611Z,12.60
2018-05-29T08:50:22.049Z,12.07
2018-05-29T08:52:49.472Z,12.23
2018-05-29T08:55:16.910Z,11.17
2018-05-29T08:57:44.345Z,12.20
2018-05-29T09:00:11.773Z,11.53
2018-05-29T09:02:39.226Z,11.70
2018-05-29T09:05:06.722Z,17.10
2018-05-29T09:07:34.158Z,11.70
2018-05-29T09:10:01.584Z,11.37
2018-05-29T09:12:29.012Z,11.93
2018-05-29T09:14:56.451Z,12.30
2018-05-29T09:17:23.885Z,11.10
2018-05-29T09:19:51.335Z,12.30
2018-05-29T09:22:18.752Z,12.00
2018-05-29T09:24:46.183Z,13.57
2018-05-29T09:27:13.613Z,10.73
2018-05-29T09:29:41.957Z,12.87
2018-05-29T09:32:09.338Z,13.60
2018-05-29T09:34:36.765Z,11.60
2018-05-29T09:37:04.180Z,12.03
2018-05-29T09:39:31.620Z,11.03
2018-05-29T09:41:59.044Z,11.00
2018-05-29T09:44:26.511Z,11.17
2018-05-29T09:46:53.949Z,11.60
2018-05-29T09:49:21.379Z,11.90
2018-05-29T09:51:48.797Z,10.70
2018-05-29T09:54:16.231Z,11.73
2018-05-29T09:56:43.668Z,11.10
2018-05-29T09:59:11.106Z,12.20
2018-05-29T10:01:38.541Z,11.90
2018-05-29T10:04:05.967Z,10.30
2018-05-29T10:06:34.154Z,11.37
2018-05-29T10:09:01.577Z,12.10
2018-05-29T10:11:29.000Z,11.27
2018-05-29T10:13:57.353Z,10.80
2018-05-29T10:16:24.906Z,11.30
2018-05-29T10:18:53.326Z,11.23
2018-05-29T10:21:20.737Z,10.27
2018-05-29T10:23:48.168Z,11.23
2018-05-29T10:26:15.577Z,10.33
2018-05-29T10:28:43.032Z,9.33
2018-05-29T10:31:10.467Z,11.07
2018-05-29T10:33:38.022Z,10.40
2018-05-29T10:36:05.454Z,11.80
2018-05-29T10:38:34.105Z,12.10
2018-05-29T10:41:01.517Z,11.47
2018-05-29T10:43:28.972Z,11.50
2018-05-29T10:45:56.406Z,10.60
2018-05-29T10:48:23.828Z,10.23
2018-05-29T10:50:51.375Z,10.63
2018-05-29T10:53:19.610Z,12.57
2018-05-29T10:55:47.049Z,12.30
2018-05-29T10:58:14.488Z,11.13
2018-05-29T11:00:41.913Z,11.00
2018-05-29T11:03:09.358Z,10.07
2018-05-29T11:05:36.774Z,9.90
2018-05-29T11:08:04.199Z,9.03
2018-05-29T11:10:31.617Z,10.17
2018-05-29T11:12:59.958Z,10.67
2018-05-29T11:15:29.457Z,11.00
2018-05-29T11:18:00.655Z,11.60
2018-05-29T11:23:21.954Z,13.30
2018-05-29T11:25:56.009Z,11.67
2018-05-29T11:31:25.247Z,10.50
2018-05-29T11:36:51.010Z,11.13
2018-05-29T11:42:16.152Z,10.60
2018-05-29T11:44:51.124Z,18.50
2018-05-29T11:47:18.511Z,15.33
2018-05-29T11:49:45.908Z,11.00
2018-05-29T11:52:13.320Z,10.60
2018-05-29T11:54:40.717Z,9.50
2018-05-29T11:57:08.132Z,12.40
2018-05-29T11:59:35.527Z,10.47
2018-05-29T12:04:36.756Z,10.87
2018-05-29T12:07:04.188Z,10.80
2018-05-29T12:09:31.632Z,11.73
2018-05-29T12:15:06.639Z,11.30
2018-05-29T12:17:34.029Z,10.30
2018-05-29T12:20:01.427Z,10.37
2018-05-29T12:22:28.856Z,11.87
2018-05-29T12:24:56.259Z,11.40
2018-05-29T12:27:23.693Z,10.23
2018-05-29T12:29:51.109Z,12.27
2018-05-29T12:32:18.524Z,10.73
2018-05-29T12:34:45.963Z,10.90
2018-05-29T12:37:13.372Z,11.27
2018-05-29T12:39:40.772Z,12.43
2018-05-29T12:42:08.172Z,13.60
2018-05-29T12:44:35.571Z,12.37
2018-05-29T12:47:02.974Z,12.50
2018-05-29T12:49:30.368Z,13.20
2018-05-29T12:51:57.755Z,11.97
2018-05-29T12:54:25.195Z,14.33
2018-05-29T12:56:52.552Z,11.73
2018-05-29T12:59:19.953Z,13.73
2018-05-29T13:01:47.360Z,11.87
2018-05-29T13:04:14.761Z,12.10
2018-05-29T13:31:45.359Z,12.50
2018-05-29T13:34:13.107Z,14.00
2018-05-29T13:36:40.502Z,11.33
2018-05-29T13:39:08.363Z,12.23
2018-05-29T13:41:35.724Z,11.77
2018-05-29T13:44:03.134Z,12.10
2018-05-29T13:46:30.554Z,11.43
2018-05-29T13:48:57.987Z,11.33
2018-05-29T13:51:25.407Z,10.67
2018-05-29T13:53:52.834Z,9.57
2018-05-29T13:56:20.264Z,14.00
2018-05-29T13:58:47.702Z,10.03
2018-05-29T14:01:15.128Z,12.00
2018-05-29T14:03:42.551Z,11.37
2018-05-29T14:09:24.019Z,10.00
2018-05-29T15:25:52.948Z,8.50
2018-05-29T15:28:20.335Z,10.03
2018-05-29T15:30:47.731Z,7.97
2018-05-29T15:33:15.141Z,9.23
2018-05-29T15:35:42.522Z,9.37
2018-05-29T15:38:09.993Z,7.90
2018-05-29T15:40:37.383Z,9.03
2018-05-29T15:43:04.764Z,12.53
2018-05-29T15:45:33.079Z,7.80
2018-05-29T15:48:00.463Z,9.13
2018-05-29T15:50:27.843Z,8.93
2018-05-29T15:52:55.816Z,7.73
2018-05-29T16:09:42.883Z,9.53
2018-05-29T16:12:10.281Z,11.30
2018-05-29T16:14:37.683Z,8.23
2018-05-29T16:17:05.060Z,9.53
2018-05-29T16:19:32.467Z,9.07
2018-05-29T16:21:59.839Z,10.63
2018-05-29T16:24:27.231Z,8.57
2018-05-29T16:26:54.607Z,9.60
2018-05-29T16:29:22.005Z,10.10
2018-05-29T16:31:49.416Z,13.17
2018-05-29T16:34:16.800Z,10.00
2018-05-29T16:36:44.191Z,9.10
2018-05-29T16:39:11.592Z,8.37
2018-05-29T16:41:38.984Z,9.20
2018-05-29T16:44:06.360Z,8.90
2018-05-29T16:46:33.767Z,9.80
2018-05-29T16:49:01.170Z,12.93
2018-05-29T16:51:28.549Z,8.60
2018-05-29T16:53:55.951Z,10.17
2018-05-29T16:56:23.377Z,12.20
2018-05-29T16:58:50.747Z,9.40
2018-05-29T17:01:18.138Z,11.00
2018-05-29T17:03:45.529Z,8.67
2018-05-29T17:06:12.928Z,10.33
2018-05-29T17:08:40.300Z,8.40
2018-05-29T17:11:07.705Z,10.53
2018-05-29T17:13:35.083Z,11.63
2018-05-29T17:16:02.474Z,9.93
2018-05-29T17:18:29.867Z,8.50
2018-05-29T17:20:57.257Z,8.00
2018-05-29T17:23:24.648Z,8.40
2018-05-29T17:25:52.052Z,9.10
2018-05-29T17:28:19.411Z,8.23
2018-05-29T17:30:46.808Z,12.10
2018-05-29T17:33:14.202Z,12.20
2018-05-29T17:35:41.584Z,8.07
2018-05-29T17:38:08.964Z,8.00
2018-05-29T17:40:36.790Z,7.87
2018-05-29T17:43:04.161Z,7.60
2018-05-29T17:45:31.547Z,8.00
2018-05-29T17:47:58.926Z,9.80
2018-05-29T17:50:26.311Z,8.30
2018-05-29T17:52:53.687Z,9.17
2018-05-29T17:55:21.087Z,8.60
2018-05-29T17:57:48.485Z,7.50
2018-05-29T18:00:15.881Z,8.43
2018-05-29T18:02:43.260Z,7.43
2018-05-29T18:05:10.671Z,8.00
2018-05-29T18:07:38.051Z,7.20
2018-05-29T18:10:05.455Z,7.90
2018-05-29T18:12:32.873Z,8.37
2018-05-29T18:15:00.269Z,8.40
2018-05-29T18:17:27.640Z,8.37
2018-05-29T18:19:55.041Z,8.13
2018-05-29T18:22:22.420Z,7.77
2018-05-29T18:24:49.798Z,9.20
2018-05-29T18:27:17.202Z,14.90
2018-05-29T18:29:44.583Z,6.63
2018-05-29T18:32:11.985Z,9.53
2018-05-29T18:34:39.363Z,6.90
2018-05-29T18:37:06.758Z,6.53
2018-05-29T18:39:34.123Z,7.73
2018-05-29T18:42:01.546Z,7.87
2018-05-29T18:44:28.933Z,6.80
2018-05-29T18:46:56.316Z,7.53
2018-05-29T18:49:24.020Z,7.50
2018-05-29T18:51:51.418Z,6.77
2018-05-29T18:54:18.807Z,7.33
2018-05-29T18:56:46.207Z,6.30
2018-05-29T18:59:13.579Z,7.97
2018-05-29T19:01:40.964Z,6.87
2018-05-29T19:04:08.367Z,8.47
2018-05-29T19:06:35.763Z,7.37
2018-05-29T19:09:03.156Z,7.20
2018-05-29T19:11:30.538Z,6.53
2018-05-29T19:13:57.917Z,9.20
2018-05-29T19:16:25.358Z,13.90
2018-05-29T19:18:52.689Z,6.53
2018-05-29T19:21:20.075Z,7.70
2018-05-29T19:23:47.475Z,7.50
2018-05-29T19:26:14.876Z,7.50
2018-05-29T19:28:42.272Z,7.63
2018-05-29T19:31:09.663Z,6.60
2018-05-29T19:33:37.043Z,7.60
2018-05-29T19:36:04.435Z,6.00
2018-05-29T19:38:31.823Z,8.90
2018-05-29T19:40:59.215Z,7.43
2018-05-29T19:43:26.603Z,7.20
2018-05-29T19:45:53.999Z,6.47
2018-05-29T19:48:21.396Z,7.00
2018-05-29T19:50:54.304Z,6.70
2018-05-29T19:53:25.739Z,7.63
2018-05-29T19:55:55.144Z,7.23
2018-05-29T19:58:32.731Z,7.83
2018-05-29T20:01:01.028Z,6.87
2018-05-29T20:03:31.044Z,6.17
2018-05-29T20:05:59.197Z,7.07
2018-05-29T20:08:26.606Z,8.43
2018-05-29T20:10:54.029Z,6.50
2018-05-29T20:13:21.451Z,9.47
2018-05-29T20:15:48.879Z,6.30
2018-05-29T20:18:16.284Z,7.00
2018-05-29T20:20:44.530Z,6.80
2018-05-29T20:23:11.936Z,8.40
2018-05-29T20:25:39.357Z,7.17
2018-05-29T20:28:06.918Z,7.20
2018-05-29T20:30:35.491Z,5.77
2018-05-29T20:33:02.942Z,6.47
2018-05-29T20:35:30.386Z,6.50
2018-05-29T20:37:58.393Z,9.00
2018-05-29T20:53:16.573Z,8.87
2018-05-29T20:55:44.006Z,8.53
2018-05-29T20:58:11.398Z,8.03
2018-05-29T21:00:39.157Z,7.43
2018-05-29T21:03:06.524Z,7.80
2018-05-29T21:05:33.968Z,7.03
2018-05-29T21:08:01.395Z,6.83
2018-05-29T21:10:28.826Z,6.30
2018-05-29T21:12:56.272Z,8.23
2018-05-29T21:15:23.742Z,6.33
2018-05-29T21:17:51.848Z,6.40
2018-05-29T21:20:19.236Z,7.07
2018-05-29T21:22:48.040Z,7.17
2018-05-29T21:25:28.629Z,6.27
2018-05-29T21:27:56.039Z,7.00
2018-05-29T21:30:23.428Z,9.23
2018-05-29T21:32:50.874Z,6.73
2018-05-29T21:35:18.280Z,6.20
2018-05-29T21:37:45.713Z,5.93
2018-05-29T21:40:13.106Z,6.53
2018-05-29T21:42:42.494Z,6.70
2018-05-29T21:45:13.641Z,6.47
2018-05-29T21:47:41.072Z,8.17
2018-05-29T21:50:08.561Z,8.77
2018-05-29T21:52:36.039Z,7.10
2018-05-29T21:55:05.462Z,6.63
2018-05-29T21:57:32.931Z,5.87
2018-05-29T22:00:00.589Z,6.83
2018-05-29T22:02:27.987Z,7.10
2018-05-29T22:04:55.415Z,6.53
2018-05-29T22:07:22.813Z,8.00
2018-05-29T22:09:51.231Z,6.33
2018-05-29T22:12:18.659Z,7.00
2018-05-29T22:14:46.080Z,5.70
2018-05-29T22:17:13.495Z,6.47
2018-05-29T22:19:40.890Z,6.60
2018-05-29T22:22:08.382Z,7.23
2018-05-29T22:24:35.772Z,7.03
2018-05-29T22:27:03.195Z,7.93
2018-05-29T22:29:30.615Z,7.83
2018-05-29T22:31:58.123Z,7.40
2018-05-29T22:34:25.538Z,7.13
2018-05-29T22:36:53.055Z,9.27
2018-05-29T22:39:20.470Z,6.27
2018-05-29T22:41:47.996Z,8.27
2018-05-29T22:44:15.386Z,5.90
2018-05-29T22:46:50.348Z,7.30
2018-05-29T22:53:43.716Z,5.70
2018-05-29T22:56:13.899Z,7.43
2018-05-29T22:58:41.571Z,7.33
2018-05-29T23:01:09.059Z,7.03
2018-05-29T23:03:36.456Z,5.87
2018-05-29T23:06:03.941Z,6.27
2018-05-29T23:08:31.379Z,6.70
2018-05-29T23:10:58.826Z,7.00
2018-05-29T23:13:26.242Z,6.60
2018-05-29T23:15:53.628Z,6.50
2018-05-29T23:18:22.134Z,8.40
2018-05-29T23:20:49.777Z,7.30
2018-05-29T23:23:17.285Z,7.23
2018-05-29T23:25:44.674Z,6.77
2018-05-29T23:28:12.155Z,10.17
2018-05-29T23:30:39.557Z,7.73
2018-05-29T23:33:06.978Z,8.77
2018-05-29T23:35:34.403Z,6.90
2018-05-29T23:38:01.934Z,8.70
2018-05-29T23:40:30.129Z,8.33
2018-05-29T23:42:57.640Z,10.27
2018-05-29T23:45:25.188Z,7.20
2018-05-29T23:47:52.599Z,7.20
2018-05-29T23:50:19.982Z,7.63
2018-05-29T23:52:47.364Z,8.30
2018-05-29T23:55:14.755Z,7.53
2018-05-29T23:57:42.149Z,6.73
